Time;durP1;ratioP1;P1;durP2;ratioP2;P2;SDS_P1;SDS_P2;PMS_P1;PMS_P2;Temp;Humidity;BMP_temperature;BMP_pressure;BME280_temperature;BME280_humidity;BME280_pressure;Samples;Min_cycle;Max_cycle;Signal;HPM_P1;HPM_P2
2022/06/15 00:05:43;;;;;;;58.73;55.03;;;;;;;15.56;100.00;101855.78;1994733;71;32867;-66
2022/06/15 00:11:31;;;;;;;60.83;56.90;;;;;;;15.16;100.00;101852.71;1995274;71;32857;-66
2022/06/15 00:17:17;;;;;;;60.63;56.83;;;;;;;14.79;100.00;101865.84;2007789;71;32942;-66
2022/06/15 00:23:03;;;;;;;61.00;57.00;;;;;;;14.35;100.00;101855.97;2013170;71;32910;-67
2022/06/15 00:28:47;;;;;;;62.07;58.17;;;;;;;14.13;100.00;101854.93;2009300;71;32884;-66
2022/06/15 00:34:31;;;;;;;60.53;56.53;;;;;;;14.16;100.00;101852.98;2004219;71;33392;-66
2022/06/15 00:40:16;;;;;;;60.10;56.30;;;;;;;14.29;100.00;101855.14;2014923;71;32867;-67
2022/06/15 00:46:01;;;;;;;59.53;55.63;;;;;;;14.39;100.00;101850.11;2015002;71;32963;-66
2022/06/15 00:51:48;;;;;;;59.70;55.77;;;;;;;14.20;100.00;101860.23;2006253;71;32858;-66
2022/06/15 00:57:35;;;;;;;60.93;56.93;;;;;;;14.21;100.00;101847.35;2007708;71;32947;-67
2022/06/15 01:03:22;;;;;;;59.93;56.03;;;;;;;14.42;100.00;101842.53;2018548;71;32937;-66
2022/06/15 01:09:12;;;;;;;60.17;56.37;;;;;;;13.83;100.00;101849.42;1969215;72;32879;-66
2022/06/15 01:15:32;;;;;;;61.23;57.00;;;;;;;13.59;100.00;101853.39;1991651;71;32746;-66
2022/06/15 01:18:10;;;;;;;60.23;56.27;;;;;;;13.54;100.00;101862.60;1958851;72;26682;-66
2022/06/15 01:20:58;;;;;;;60.27;56.13;;;;;;;13.37;100.00;101866.80;1970815;72;26212;-65
2022/06/15 01:23:59;;;;;;;60.60;56.60;;;;;;;13.30;100.00;101862.90;1959124;72;26221;-66
2022/06/15 01:30:43;;;;;;;59.43;55.43;;;;;;;12.94;100.00;101845.25;2009528;70;32807;-66
2022/06/15 01:33:19;;;;;;;59.00;55.07;;;;;;;12.81;100.00;101858.89;1979750;72;26212;-66
2022/06/15 01:35:56;;;;;;;58.83;54.93;;;;;;;12.57;100.00;101858.56;1961906;72;26223;-66
2022/06/15 01:38:33;;;;;;;58.20;54.30;;;;;;;12.65;100.00;101860.81;1959065;72;26212;-66
2022/06/15 01:41:07;;;;;;;60.00;56.10;;;;;;;12.71;100.00;101856.35;1966415;72;26313;-66
2022/06/15 01:43:41;;;;;;;58.40;54.53;;;;;;;12.72;100.00;101851.06;1967075;72;26301;-66
2022/06/15 01:49:30;;;;;;;58.80;54.50;;;;;;;12.87;100.00;101839.67;1998952;71;32819;-67
2022/06/15 01:55:19;;;;;;;58.07;53.97;;;;;;;12.93;100.00;101837.99;2005586;71;32803;-66
2022/06/15 02:01:09;;;;;;;58.80;54.90;;;;;;;12.88;100.00;101835.19;2016769;71;33377;-66
2022/06/15 02:07:01;;;;;;;59.37;55.40;;;;;;;12.93;100.00;101831.02;2015039;71;33002;-66
2022/06/15 02:09:35;;;;;;;57.30;53.53;;;;;;;12.87;100.00;101836.33;1973844;72;26227;-67
2022/06/15 02:15:25;;;;;;;59.13;55.13;;;;;;;13.20;100.00;101831.64;2013495;71;32753;-66
2022/06/15 02:21:15;;;;;;;59.33;55.50;;;;;;;12.94;100.00;101836.05;2002758;71;32828;-66
2022/06/15 02:27:02;;;;;;;59.50;55.63;;;;;;;13.05;100.00;101834.96;1995298;71;32903;-66
2022/06/15 02:32:51;;;;;;;58.27;54.27;;;;;;;12.83;100.00;101839.39;2016755;71;33326;-66
2022/06/15 02:38:36;;;;;;;60.00;55.80;;;;;;;12.46;100.00;101849.31;2004444;71;32752;-66
2022/06/15 02:44:20;;;;;;;59.23;55.03;;;;;;;12.45;100.00;101844.03;2004091;71;32874;-66
2022/06/15 02:50:07;;;;;;;59.20;55.00;;;;;;;12.74;100.00;101848.86;2000989;71;32806;-66
2022/06/15 02:55:56;;;;;;;59.57;55.27;;;;;;;12.67;100.00;101848.27;2011906;71;32884;-67
2022/06/15 03:01:43;;;;;;;58.43;54.47;;;;;;;12.78;100.00;101854.16;2013412;71;32843;-66
2022/06/15 03:07:38;;;;;;;57.40;53.50;;;;;;;12.58;100.00;101854.08;2016746;71;33066;-66
2022/06/15 03:13:27;;;;;;;59.00;55.20;;;;;;;12.02;100.00;101843.85;2013522;71;32824;-66
2022/06/15 03:19:13;;;;;;;58.20;54.33;;;;;;;11.86;100.00;101841.52;2007719;71;32873;-67
2022/06/15 03:24:59;;;;;;;58.00;54.10;;;;;;;11.44;100.00;101826.19;2018628;71;33390;-66
2022/06/15 03:30:43;;;;;;;59.87;55.87;;;;;;;11.75;100.00;101832.28;2013472;71;32748;-66
2022/06/15 03:36:30;;;;;;;59.83;55.83;;;;;;;11.94;100.00;101834.04;2004049;71;32923;-66
2022/06/15 03:42:17;;;;;;;60.17;56.07;;;;;;;11.90;100.00;101835.69;2010074;71;33307;-66
2022/06/15 03:48:02;;;;;;;61.23;57.17;;;;;;;12.13;100.00;101839.44;2006246;71;32803;-73
2022/06/15 03:53:47;;;;;;;63.37;58.97;;;;;;;12.08;100.00;101834.39;2005925;71;32875;-71
2022/06/15 03:59:31;;;;;;;58.73;54.73;;;;;;;11.57;100.00;101836.02;1997186;71;33265;-72
2022/06/15 04:05:20;;;;;;;57.93;54.03;;;;;;;11.62;100.00;101847.19;2002693;71;33437;-72
2022/06/15 04:11:06;;;;;;;61.10;57.00;;;;;;;11.70;100.00;101836.94;2000805;71;32936;-72
2022/06/15 04:16:54;;;;;;;57.57;53.27;;;;;;;11.81;100.00;101847.05;2009462;71;33354;-73
2022/06/15 04:22:39;;;;;;;58.23;54.03;;;;;;;11.54;100.00;101845.75;2004370;71;32878;-72
2022/06/15 04:28:26;;;;;;;60.10;56.10;;;;;;;11.20;100.00;101847.14;2014898;71;32810;-71
2022/06/15 04:34:12;;;;;;;58.87;54.97;;;;;;;11.47;100.00;101855.44;1995033;71;32885;-73
2022/06/15 04:39:57;;;;;;;58.67;54.67;;;;;;;11.57;100.00;101842.42;2000331;71;32953;-73
2022/06/15 04:45:41;;;;;;;60.53;56.33;;;;;;;11.76;100.00;101846.49;2016814;71;33274;-73
2022/06/15 04:51:29;;;;;;;58.20;54.07;;;;;;;11.76;100.00;101850.67;2013299;71;32974;-72
2022/06/15 04:57:14;;;;;;;59.57;55.17;;;;;;;11.98;100.00;101838.54;2008070;71;32836;-72
2022/06/15 05:02:59;;;;;;;61.93;57.30;;;;;;;12.31;100.00;101849.27;2018510;71;32939;-71
2022/06/15 05:08:44;;;;;;;63.07;58.53;;;;;;;12.60;100.00;101845.46;1980058;72;33147;-72
2022/06/15 05:14:29;;;;;;;68.13;63.23;;;;;;;12.82;100.00;101858.62;2011592;71;33382;-71
2022/06/15 05:20:18;;;;;;;65.57;60.47;;;;;;;13.08;100.00;101863.69;2016796;71;33010;-72
2022/06/15 05:26:09;;;;;;;66.90;61.70;;;;;;;13.23;100.00;101869.30;2017079;71;33034;-71
2022/06/15 05:31:56;;;;;;;66.93;61.73;;;;;;;13.24;100.00;101870.98;2011853;71;32761;-72
2022/06/15 05:37:41;;;;;;;69.17;63.63;;;;;;;13.47;100.00;101875.17;2018582;71;32899;-72
2022/06/15 05:43:28;;;;;;;69.73;64.23;;;;;;;13.59;100.00;101886.33;2002628;71;33308;-72
2022/06/15 05:49:13;;;;;;;68.90;63.60;;;;;;;13.74;100.00;101884.06;2004122;71;33353;-71
2022/06/15 05:54:58;;;;;;;71.17;65.57;;;;;;;13.85;100.00;101880.16;2014736;71;32961;-73
2022/06/15 06:00:42;;;;;;;73.73;67.83;;;;;;;14.05;100.00;101879.27;2011705;71;33302;-72
2022/06/15 06:06:28;;;;;;;74.77;69.17;;;;;;;14.22;100.00;101876.98;2015093;70;33306;-73
2022/06/15 06:12:13;;;;;;;74.33;68.93;;;;;;;14.59;100.00;101887.19;2007831;71;33473;-72
2022/06/15 06:18:01;;;;;;;77.17;71.37;;;;;;;14.61;100.00;101874.33;2006306;71;32855;-71
2022/06/15 06:23:44;;;;;;;76.10;70.40;;;;;;;14.85;100.00;101876.70;2007644;71;32877;-71
2022/06/15 06:29:34;;;;;;;76.33;70.77;;;;;;;14.80;100.00;101871.16;1991698;70;32961;-72
2022/06/15 06:35:19;;;;;;;75.07;69.37;;;;;;;14.98;100.00;101873.27;1997156;71;32946;-71
2022/06/15 06:41:05;;;;;;;74.33;68.50;;;;;;;15.41;100.00;101865.10;2009661;71;33387;-72
2022/06/15 06:46:51;;;;;;;73.80;68.30;;;;;;;15.37;100.00;101862.62;2013814;71;33279;-71
2022/06/15 06:52:35;;;;;;;71.13;66.03;;;;;;;15.66;100.00;101864.91;1998702;71;33031;-71
2022/06/15 06:58:22;;;;;;;73.10;67.83;;;;;;;15.76;100.00;101872.38;2002682;71;32864;-71
2022/06/15 07:04:11;;;;;;;67.77;62.60;;;;;;;15.85;100.00;101878.45;1995203;71;32843;-70
2022/06/15 07:09:55;;;;;;;69.10;64.20;;;;;;;16.10;100.00;101882.95;2002695;71;32779;-72
2022/06/15 07:15:40;;;;;;;66.80;61.97;;;;;;;16.42;100.00;101867.44;1998687;71;32857;-69
2022/06/15 07:21:30;;;;;;;62.50;57.70;;;;;;;16.70;100.00;101856.70;2009805;71;32822;-73
2022/06/15 07:27:07;;;;;;;65.40;60.60;;;;;;;16.99;100.00;101864.41;2009621;71;32330;-73
2022/06/15 07:32:51;;;;;;;66.07;61.37;;;;;;;17.07;100.00;101871.34;1991567;71;32933;-72
2022/06/15 07:38:37;;;;;;;63.10;58.67;;;;;;;17.56;100.00;101875.85;2015115;71;31041;-71
2022/06/15 07:44:23;;;;;;;61.53;57.07;;;;;;;18.06;100.00;101865.67;2011579;71;32848;-72
2022/06/15 07:50:15;;;;;;;55.80;52.20;;;;;;;18.43;100.00;101859.03;2000919;71;33336;-71
2022/06/15 07:56:01;;;;;;;51.67;48.33;;;;;;;18.43;100.00;101855.38;2007651;71;31535;-72
2022/06/15 08:01:47;;;;;;;44.93;42.00;;;;;;;19.10;100.00;101850.20;2011385;71;30910;-72
2022/06/15 08:07:31;;;;;;;44.17;41.37;;;;;;;19.68;100.00;101844.28;1995376;71;30897;-72
2022/06/15 08:13:17;;;;;;;40.80;37.97;;;;;;;19.84;100.00;101854.83;2011321;71;31580;-73
2022/06/15 08:19:04;;;;;;;38.43;35.93;;;;;;;20.04;100.00;101853.99;1991632;71;31435;-71
2022/06/15 08:24:51;;;;;;;41.63;38.40;;;;;;;20.26;100.00;101847.71;1991698;71;31506;-72
2022/06/15 08:30:37;;;;;;;36.90;34.57;;;;;;;20.20;100.00;101837.72;2006247;71;30822;-71
2022/06/15 08:36:22;;;;;;;38.27;35.77;;;;;;;20.54;100.00;101834.80;1991694;71;31639;-71
2022/06/15 08:42:12;;;;;;;35.23;32.83;;;;;;;21.14;100.00;101827.23;2016785;71;30881;-71
2022/06/15 08:44:48;;;;;;;31.00;29.00;;;;;;;21.24;100.00;101839.62;1977416;72;24259;-70
2022/06/15 08:47:28;;;;;;;31.43;29.33;;;;;;;21.29;100.00;101840.03;1975884;72;24637;-71
2022/06/15 08:53:16;;;;;;;30.23;28.23;;;;;;;21.46;100.00;101824.47;2006295;71;30805;-71
2022/06/15 08:59:05;;;;;;;28.30;26.50;;;;;;;21.46;100.00;101813.73;2015015;71;30909;-71
2022/06/15 09:01:39;;;;;;;29.40;27.50;;;;;;;21.51;100.00;101822.88;1985572;72;24181;-71
2022/06/15 09:07:39;;;;;;;27.67;25.87;;;;;;;21.41;100.00;101811.91;2013394;71;31437;-71
2022/06/15 09:13:41;;;;;;;26.43;24.53;;;;;;;21.58;100.00;101817.53;2000872;71;30905;-71
2022/06/15 09:19:32;;;;;;;26.83;25.23;;;;;;;21.86;100.00;101816.55;2005689;71;31010;-72
2022/06/15 09:25:21;;;;;;;23.43;21.57;;;;;;;22.08;100.00;101823.96;2010102;71;30971;-71
2022/06/15 09:27:54;;;;;;;21.17;19.90;;;;;;;21.92;100.00;101825.66;1963744;72;24148;-72
2022/06/15 09:33:43;;;;;;;17.90;16.87;;;;;;;21.95;100.00;101827.88;2015115;71;31547;-71
2022/06/15 09:39:30;;;;;;;16.17;15.20;;;;;;;22.50;100.00;101824.94;2015088;71;30979;-71
2022/06/15 09:45:21;;;;;;;14.53;13.50;;;;;;;22.02;100.00;101829.58;2002890;71;31386;-71
2022/06/15 09:51:12;;;;;;;14.23;13.33;;;;;;;22.19;100.00;101822.43;2011776;71;30897;-72
2022/06/15 09:57:00;;;;;;;12.67;11.97;;;;;;;22.73;100.00;101814.13;2000811;71;30834;-71
2022/06/15 10:02:47;;;;;;;12.53;11.63;;;;;;;22.13;100.00;101818.95;2018602;71;31003;-71
2022/06/15 10:08:35;;;;;;;12.57;11.87;;;;;;;22.53;100.00;101808.66;2002596;71;30849;-72
2022/06/15 10:14:28;;;;;;;13.20;12.30;;;;;;;22.23;100.00;101805.84;2015070;71;30894;-73
2022/06/15 10:20:24;;;;;;;12.80;12.00;;;;;;;22.13;100.00;101807.63;2013286;71;31383;-71
2022/06/15 10:26:14;;;;;;;12.53;11.83;;;;;;;22.00;100.00;101801.61;2007770;71;30889;-71
2022/06/15 10:32:12;;;;;;;11.87;11.07;;;;;;;22.39;100.00;101799.00;2015103;71;31013;-71
2022/06/15 10:38:13;;;;;;;11.23;10.63;;;;;;;22.57;100.00;101804.80;2007989;71;30867;-71
2022/06/15 10:44:05;;;;;;;12.93;11.93;;;;;;;23.07;100.00;101799.69;2011563;71;30906;-71
2022/06/15 10:50:14;;;;;;;12.88;12.15;;;;;;;22.65;100.00;101801.66;2011324;71;30877;-71
2022/06/15 10:52:47;;;;;;;12.90;11.93;;;;;;;22.73;100.00;101802.80;1980811;72;24348;-71
2022/06/15 11:04:54;;;;;;;18.48;17.48;;;;;;;22.78;100.00;101808.27;1997240;71;30998;-72
2022/06/15 11:10:47;;;;;;;18.97;17.97;;;;;;;22.60;100.00;101797.03;2016763;71;30967;-71
2022/06/15 11:22:55;;;;;;;16.70;15.90;;;;;;;22.68;100.00;101795.30;2004467;71;30868;-71
2022/06/15 11:28:42;;;;;;;12.10;11.38;;;;;;;22.66;100.00;101792.00;2009560;71;30983;-70
2022/06/15 11:34:39;;;;;;;12.43;11.68;;;;;;;22.73;100.00;101781.55;2016590;71;30957;-72
2022/06/15 11:37:14;;;;;;;12.18;11.48;;;;;;;23.11;100.00;101776.55;1979859;72;24166;-71
2022/06/15 11:43:02;;;;;;;11.93;11.25;;;;;;;22.76;100.00;101790.80;2011324;71;31614;-70
2022/06/15 11:48:58;;;;;;;12.13;11.43;;;;;;;23.44;100.00;101768.94;2006334;71;31415;-73
2022/06/15 11:51:37;;;;;;;12.60;11.57;;;;;;;22.98;100.00;101779.09;1958908;72;24155;-72
2022/06/15 11:54:15;;;;;;;12.07;11.38;;;;;;;23.37;100.00;101774.88;1963201;72;24616;-71
2022/06/15 11:56:49;;;;;;;12.10;11.38;;;;;;;23.51;100.00;101772.02;1984152;72;24759;-72
2022/06/15 12:02:44;;;;;;;12.20;11.35;;;;;;;23.82;100.00;101762.98;1991713;71;30939;-72
2022/06/15 12:05:26;;;;;;;11.90;11.20;;;;;;;23.49;100.00;101770.72;1966970;72;24671;-72
2022/06/15 12:08:03;;;;;;;12.70;11.75;;;;;;;23.50;100.00;101768.94;1982238;72;24248;-72
2022/06/15 12:10:41;;;;;;;12.30;11.57;;;;;;;23.43;100.00;101769.24;1973860;72;24659;-71
2022/06/15 12:13:17;;;;;;;12.43;11.30;;;;;;;23.62;100.00;101768.13;1979908;72;24167;-71
2022/06/15 12:15:51;;;;;;;12.30;11.40;;;;;;;23.55;100.00;101765.05;1959169;72;24419;-71
2022/06/15 12:21:38;;;;;;;11.57;10.88;;;;;;;23.38;100.00;101763.20;2018497;71;30982;-71
2022/06/15 12:24:14;;;;;;;11.53;10.72;;;;;;;23.29;100.00;101768.72;1985651;72;24624;-73
2022/06/15 12:26:50;;;;;;;11.80;11.00;;;;;;;23.40;100.00;101775.04;1978758;72;24155;-73
2022/06/15 12:29:28;;;;;;;12.23;11.38;;;;;;;23.38;100.00;101775.96;1986072;72;24624;-73
2022/06/15 12:32:08;;;;;;;12.35;11.30;;;;;;;23.42;100.00;101781.17;1984830;72;24655;-73
2022/06/15 12:34:43;;;;;;;13.38;12.20;;;;;;;23.48;100.00;101769.06;1966756;72;24672;-73
2022/06/15 12:37:19;;;;;;;12.25;11.45;;;;;;;23.79;100.00;101775.02;1969543;72;24384;-73
2022/06/15 12:39:52;;;;;;;12.25;11.40;;;;;;;24.08;100.00;101774.00;1966628;72;24961;-73
2022/06/15 12:45:39;;;;;;;12.23;11.45;;;;;;;23.25;100.00;101783.35;2016803;71;31048;-72
2022/06/15 12:48:14;;;;;;;11.73;11.12;;;;;;;23.33;100.00;101783.84;1972681;72;24152;-72
2022/06/15 12:50:50;;;;;;;11.53;10.93;;;;;;;23.53;100.00;101783.02;1958983;72;24650;-72
2022/06/15 12:53:40;;;;;;;11.70;11.05;;;;;;;23.78;100.00;101771.96;1958855;72;24159;-72
2022/06/15 12:59:40;;;;;;;17.30;12.07;;;;;;;23.31;100.00;101775.71;2002413;71;30896;-71
2022/06/15 13:05:31;;;;;;;11.65;10.95;;;;;;;23.32;100.00;101783.63;1994843;71;31465;-72
2022/06/15 13:12:08;;;;;;;11.85;11.12;;;;;;;23.68;100.00;101770.16;2010039;71;31452;-72
2022/06/15 13:18:08;;;;;;;12.65;11.78;;;;;;;24.42;100.00;101771.28;2013453;71;30919;-71
2022/06/15 13:24:12;;;;;;;12.10;11.33;;;;;;;23.80;100.00;101770.17;2008142;71;30877;-71
2022/06/15 13:30:24;;;;;;;12.30;11.30;;;;;;;23.63;100.00;101764.11;2006177;71;30923;-71
2022/06/15 13:36:23;;;;;;;12.50;11.70;;;;;;;23.86;100.00;101761.67;1999075;71;30862;-72
2022/06/15 13:45:52;;;;;;;12.05;11.20;;;;;;;24.42;100.00;101760.76;1998830;71;32898;-72
2022/06/15 13:51:41;;;;;;;11.45;10.78;;;;;;;23.52;100.00;101765.76;2009996;71;30819;-72
2022/06/15 13:57:58;;;;;;;11.65;11.03;;;;;;;23.96;100.00;101763.44;2003939;71;30930;-72
2022/06/15 14:04:14;;;;;;;11.20;10.60;;;;;;;23.63;100.00;101755.61;1995432;71;30906;-72
2022/06/15 14:10:08;;;;;;;11.30;10.50;;;;;;;23.69;100.00;101754.21;2016760;71;30969;-73
2022/06/15 14:12:50;;;;;;;11.20;10.50;;;;;;;23.38;100.00;101767.45;1973723;72;24644;-73
2022/06/15 14:15:50;;;;;;;11.50;10.82;;;;;;;23.76;100.00;101761.54;1980746;72;24243;-73
2022/06/15 14:22:07;;;;;;;12.05;11.20;;;;;;;24.10;100.00;101753.75;1999099;71;30904;-72
2022/06/15 14:27:55;;;;;;;11.85;11.03;;;;;;;23.97;100.00;101755.76;2011843;71;30866;-72
2022/06/15 14:33:47;;;;;;;11.28;10.80;;;;;;;24.03;100.00;101750.09;2011189;71;31070;-72
2022/06/15 14:39:34;;;;;;;10.70;10.00;;;;;;;24.88;100.00;101735.80;2006532;71;30896;-73
2022/06/15 14:45:24;;;;;;;11.03;10.10;;;;;;;23.63;100.00;101734.91;2018707;71;30956;-72
2022/06/15 14:51:15;;;;;;;11.63;10.63;;;;;;;23.57;100.00;101743.68;2011277;71;30912;-72
2022/06/15 14:57:13;;;;;;;11.25;10.65;;;;;;;23.94;100.00;101746.55;2011397;71;31011;-77
2022/06/15 15:03:00;;;;;;;11.80;10.78;;;;;;;24.40;100.00;101746.66;2004181;71;30953;-71
2022/06/15 15:08:49;;;;;;;12.18;11.28;;;;;;;23.61;100.00;101745.22;1977310;72;31592;-71
2022/06/15 15:14:52;;;;;;;11.33;10.72;;;;;;;23.48;100.00;101728.77;2004221;71;31419;-71
2022/06/15 15:20:39;;;;;;;14.87;11.33;;;;;;;23.54;100.00;101716.58;1991397;71;30958;-72
2022/06/15 15:26:35;;;;;;;12.70;11.15;;;;;;;23.36;100.00;101718.76;2013253;71;30998;-71
2022/06/15 15:39:16;;;;;;;12.58;11.53;;;;;;;23.19;100.00;101732.32;2006415;71;31365;-73
2022/06/15 15:45:01;;;;;;;12.30;11.50;;;;;;;23.23;100.00;101719.94;2018741;71;31491;-73
2022/06/15 15:50:45;;;;;;;11.18;10.18;;;;;;;23.25;100.00;101718.98;2008152;71;30902;-75
2022/06/15 15:56:30;;;;;;;12.90;11.90;;;;;;;23.39;100.00;101717.25;2013411;71;31015;-75
2022/06/15 16:02:16;;;;;;;12.78;11.88;;;;;;;23.41;100.00;101713.45;2014890;71;31537;-73
2022/06/15 16:08:01;;;;;;;12.20;11.20;;;;;;;23.45;100.00;101728.03;2007792;71;30986;-73
2022/06/15 16:13:47;;;;;;;11.88;11.08;;;;;;;23.34;100.00;101725.38;2004185;71;31024;-73
2022/06/15 16:19:33;;;;;;;12.03;11.18;;;;;;;23.44;100.00;101705.13;2007425;70;31540;-73
2022/06/15 16:25:20;;;;;;;11.65;10.90;;;;;;;23.56;100.00;101709.98;2001043;71;31447;-73
2022/06/15 16:31:08;;;;;;;11.65;11.05;;;;;;;23.72;100.00;101705.27;2018509;71;30945;-73
2022/06/15 16:36:53;;;;;;;12.03;11.28;;;;;;;23.70;100.00;101700.55;2017023;71;31490;-73
2022/06/15 16:42:38;;;;;;;12.73;11.95;;;;;;;23.45;100.00;101705.34;2006261;71;30948;-73
2022/06/15 16:48:24;;;;;;;11.88;10.98;;;;;;;23.64;100.00;101701.95;2016693;71;30991;-73
2022/06/15 16:54:09;;;;;;;11.80;11.10;;;;;;;23.75;100.00;101685.27;2011430;71;30897;-72
2022/06/15 16:59:55;;;;;;;11.40;10.80;;;;;;;23.85;100.00;101683.39;1998719;71;31136;-73
2022/06/15 17:05:41;;;;;;;11.28;10.60;;;;;;;23.53;100.00;101692.26;2018568;71;30895;-72
2022/06/15 17:11:28;;;;;;;11.48;10.68;;;;;;;23.71;100.00;101686.58;2014971;71;31061;-74
2022/06/15 17:17:13;;;;;;;11.65;10.98;;;;;;;23.61;100.00;101677.14;2011147;71;30894;-72
2022/06/15 17:22:59;;;;;;;11.50;10.80;;;;;;;23.60;100.00;101695.33;2013329;71;31028;-72
2022/06/15 17:28:47;;;;;;;11.43;10.72;;;;;;;23.80;100.00;101695.80;2006216;71;30823;-73
2022/06/15 17:34:31;;;;;;;11.60;10.58;;;;;;;23.75;100.00;101695.20;2009571;71;30987;-72
2022/06/15 17:40:16;;;;;;;11.20;10.48;;;;;;;23.83;100.00;101690.83;2005770;70;31404;-73
2022/06/15 17:46:02;;;;;;;11.48;10.78;;;;;;;23.83;100.00;101690.83;2013093;71;31075;-73
2022/06/15 17:51:47;;;;;;;11.65;10.95;;;;;;;23.77;100.00;101692.86;2014882;71;30922;-72
2022/06/15 17:57:32;;;;;;;12.28;11.33;;;;;;;23.88;100.00;101697.69;2009694;71;31528;-72
2022/06/15 18:03:37;;;;;;;13.18;12.37;;;;;;;23.68;100.00;101703.48;1995289;71;30974;-73
2022/06/15 18:09:26;;;;;;;13.08;12.05;;;;;;;23.67;100.00;101711.16;2006456;71;31352;-72
2022/06/15 18:15:15;;;;;;;11.65;10.95;;;;;;;23.77;100.00;101712.72;2015078;71;31023;-73
2022/06/15 18:21:00;;;;;;;12.15;11.38;;;;;;;23.77;100.00;101716.97;1995027;71;31037;-73
2022/06/15 18:26:46;;;;;;;10.68;9.98;;;;;;;23.66;100.00;101695.94;1991563;71;30824;-74
2022/06/15 18:32:32;;;;;;;11.45;10.65;;;;;;;23.77;100.00;101712.13;2006334;71;30980;-72
2022/06/15 18:38:20;;;;;;;11.88;10.95;;;;;;;23.77;100.00;101707.87;1995142;71;30900;-75
2022/06/15 18:50:09;;;;;;;11.10;10.40;;;;;;;23.70;100.00;101724.67;2016606;71;30923;-77
2022/06/15 18:55:54;;;;;;;11.80;10.68;;;;;;;23.73;100.00;101709.77;2011921;71;30831;-75
2022/06/15 19:01:38;;;;;;;11.85;10.90;;;;;;;23.69;100.00;101723.00;2011485;71;33341;-75
2022/06/15 19:07:24;;;;;;;10.63;10.13;;;;;;;23.95;100.00;101723.49;2004807;71;31285;-75
2022/06/15 19:13:16;;;;;;;10.50;10.00;;;;;;;24.15;100.00;101735.06;2016794;71;30993;-69
2022/06/15 19:19:01;;;;;;;11.45;10.65;;;;;;;24.16;100.00;101734.75;2006052;71;31015;-76
2022/06/15 19:24:47;;;;;;;10.98;10.40;;;;;;;24.18;100.00;101753.66;2011464;70;30875;-76
2022/06/15 19:30:33;;;;;;;11.70;11.00;;;;;;;24.09;100.00;101756.38;1994992;71;30986;-76
2022/06/15 19:36:18;;;;;;;12.15;11.45;;;;;;;24.03;100.00;101777.06;2004628;71;30837;-75
2022/06/15 19:42:04;;;;;;;11.20;10.60;;;;;;;23.91;100.00;101769.97;2004287;71;30830;-76
2022/06/15 19:47:52;;;;;;;11.68;11.12;;;;;;;23.64;100.00;101768.62;2000442;71;30898;-72
2022/06/15 19:53:37;;;;;;;12.25;11.43;;;;;;;23.47;100.00;101771.65;2016907;71;31412;-70
2022/06/15 19:59:23;;;;;;;11.70;11.10;;;;;;;23.35;100.00;101779.51;2016675;71;30940;-68
2022/06/15 20:05:11;;;;;;;12.28;11.43;;;;;;;23.20;100.00;101776.47;2007538;71;30924;-71
2022/06/15 20:10:58;;;;;;;11.85;11.15;;;;;;;23.09;100.00;101789.67;2015097;71;31468;-70
2022/06/15 20:13:47;;;;;;;11.30;10.70;;;;;;;23.02;100.00;101799.89;1986077;72;24625;-70
2022/06/15 20:19:35;;;;;;;11.57;10.98;;;;;;;22.92;100.00;101793.25;1997051;71;30874;-69
2022/06/15 20:25:23;;;;;;;11.78;11.08;;;;;;;22.83;100.00;101807.48;2014954;71;30939;-68
2022/06/15 20:31:12;;;;;;;11.63;11.00;;;;;;;22.77;100.00;101810.84;2016704;71;30921;-70
2022/06/15 20:36:58;;;;;;;12.13;11.43;;;;;;;22.57;100.00;101811.05;2015057;71;31524;-70
2022/06/15 20:42:44;;;;;;;12.25;11.65;;;;;;;22.44;100.00;101806.47;2014992;71;31039;-71
2022/06/15 20:48:30;;;;;;;12.47;11.78;;;;;;;22.32;100.00;101814.88;2000389;71;31032;-71
2022/06/15 20:54:16;;;;;;;11.45;10.85;;;;;;;22.22;100.00;101825.41;2011299;71;30897;-70
2022/06/15 21:00:03;;;;;;;13.07;12.30;;;;;;;22.05;100.00;101831.14;1999034;71;30894;-69
2022/06/15 21:05:48;;;;;;;12.45;11.65;;;;;;;22.00;100.00;101835.56;1995112;71;30991;-70
2022/06/15 21:17:40;;;;;;;12.65;11.95;;;;;;;21.62;100.00;101836.91;2018424;71;30890;-69
2022/06/15 21:23:27;;;;;;;15.55;14.60;;;;;;;20.67;100.00;101851.58;2015029;71;30897;-71
2022/06/15 21:29:13;;;;;;;17.70;16.80;;;;;;;20.35;100.00;101866.12;2002750;71;30862;-70
2022/06/15 21:34:58;;;;;;;18.83;17.73;;;;;;;20.01;100.00;101871.00;2011916;71;31362;-70
2022/06/15 21:40:45;;;;;;;17.77;16.87;;;;;;;19.87;100.00;101876.73;1994773;71;30914;-71
2022/06/15 21:46:32;;;;;;;16.20;15.30;;;;;;;19.75;100.00;101879.89;2016909;71;30916;-70
2022/06/15 21:52:18;;;;;;;22.47;21.27;;;;;;;19.57;100.00;101900.08;2016706;71;31376;-70
2022/06/15 21:58:03;;;;;;;19.30;18.20;;;;;;;19.62;100.00;101899.95;2009464;71;30958;-70
2022/06/15 22:03:47;;;;;;;18.97;17.77;;;;;;;19.80;100.00;101891.88;2016731;71;31456;-70
2022/06/15 22:09:35;;;;;;;17.93;16.93;;;;;;;19.57;100.00;101902.05;2011393;71;31015;-70
2022/06/15 22:15:22;;;;;;;20.00;18.70;;;;;;;19.56;100.00;101896.99;2014960;71;31445;-70
2022/06/15 22:21:12;;;;;;;22.00;20.67;;;;;;;19.37;100.00;101892.94;1998878;71;30843;-70
2022/06/15 22:27:15;;;;;;;29.20;27.70;;;;;;;19.29;100.00;101894.28;2016671;71;31489;-69
2022/06/15 22:33:00;;;;;;;21.33;20.13;;;;;;;19.18;100.00;101892.84;2005791;71;32924;-71
2022/06/15 22:38:44;;;;;;;14.33;13.63;;;;;;;19.53;100.00;101881.57;1998803;71;30927;-70
2022/06/15 22:44:29;;;;;;;12.67;12.07;;;;;;;19.72;100.00;101879.12;2011190;71;30977;-70
2022/06/15 22:56:17;;;;;;;11.60;10.90;;;;;;;19.82;100.00;101886.73;2009616;71;30989;-71
2022/06/15 23:02:02;;;;;;;11.73;11.10;;;;;;;19.77;100.00;101905.19;2014836;71;30986;-70
2022/06/15 23:07:47;;;;;;;14.40;13.70;;;;;;;19.59;100.00;101913.86;2013456;71;30950;-70
2022/06/15 23:13:33;;;;;;;14.50;13.63;;;;;;;18.71;100.00;101923.18;2015003;71;30972;-70
2022/06/15 23:19:23;;;;;;;12.87;12.27;;;;;;;18.45;100.00;101917.78;2009386;71;31402;-70
2022/06/15 23:25:10;;;;;;;12.60;11.90;;;;;;;18.46;100.00;101905.39;2014891;71;30903;-70
2022/06/15 23:30:55;;;;;;;13.53;12.83;;;;;;;18.38;100.00;101894.30;2004019;71;30892;-69
2022/06/15 23:36:39;;;;;;;12.43;11.73;;;;;;;18.25;100.00;101883.03;2011255;71;31491;-69
2022/06/15 23:42:28;;;;;;;13.80;13.10;;;;;;;18.14;100.00;101914.76;2011492;71;30902;-72
2022/06/15 23:48:15;;;;;;;16.63;15.83;;;;;;;18.30;100.00;101920.34;2009469;71;31012;-70
2022/06/15 23:54:00;;;;;;;16.50;15.60;;;;;;;17.95;100.00;101906.39;2011546;71;31484;-70
2022/06/15 23:59:45;;;;;;;17.30;16.40;;;;;;;17.85;100.00;101916.39;2011387;71;30935;-69
